Portada
METAR-TAF:

METAR-TAF

Aeropuertos :

Logan County Airport

Lincoln, Illinois, Estados Unidos

latitud: 40-09-31N, longitud: 089-20-06W, altitud: 182 m

Observación

El informe se hizo hace 22 minutos, a las 19:15 UTC
Viento 6 kt del suroeste
Temperatura 33°C
Humedad 44%
Presión 1022 hPa
Visibilidad: 16.1 km
Nubes dispersas a una altura de 5500 ft
Nubes dispersas a una altura de 7000 ft

METAR: KAAA 191915Z AUTO 23006KT 10SM SCT055 SCT070 33/19 A3019 RMK AO2 T03310192

Hora: 14:37 (19:37 UTC)


TAF: falta

Observaciones y pronósticos meteorológicos de más de 4000 aeropuertos (mensajes METAR y TAF).

Los puntos amarillos y rojos representan las estaciones disponibles.

Ponga el ratón en el punto deseado para ver el nombre de la estación.

Haga clic para ver las observaciones y los pronósticos meteorológicos.

Para cambiar el mapa : haga clic en los botones verdes con una cruz de color negro para hacer un zoom, en el botón verde con un guión para alejar o en las flechas verdes para mapas adyacentes.


METAR-TAF: